createdAt,value
2023-05-26T00:02:15.043Z,102813.69
2023-05-26T00:05:02.981Z,102804.91
2023-05-26T00:07:51.006Z,102812.78
2023-05-26T00:10:38.889Z,102810.13
2023-05-26T00:13:26.708Z,102813.63
2023-05-26T00:16:15.043Z,102816.22
2023-05-26T00:19:02.838Z,102818.00
2023-05-26T00:21:50.560Z,102823.22
2023-05-26T00:24:38.457Z,102827.56
2023-05-26T00:27:26.498Z,102824.03
2023-05-26T00:30:14.377Z,102831.03
2023-05-26T00:33:02.740Z,102826.66
2023-05-26T00:35:51.814Z,102822.22
2023-05-26T00:38:39.559Z,102828.34
2023-05-26T00:41:28.009Z,102829.22
2023-05-26T00:44:16.028Z,102836.16
2023-05-26T00:47:04.184Z,102825.59
2023-05-26T00:49:53.414Z,102832.59
2023-05-26T00:52:42.534Z,102835.16
2023-05-26T00:55:31.404Z,102822.88
2023-05-26T00:58:19.330Z,102828.97
2023-05-26T01:01:07.184Z,102831.56
2023-05-26T01:03:55.849Z,102828.00
2023-05-26T01:06:45.990Z,102835.00
2023-05-26T01:09:36.312Z,102833.19
2023-05-26T01:12:39.994Z,102841.91
2023-05-26T01:15:37.588Z,102832.25
2023-05-26T01:18:59.238Z,102835.72
2023-05-26T01:21:51.110Z,102834.78
2023-05-26T01:25:10.836Z,102825.97
2023-05-26T01:28:15.324Z,102834.69
2023-05-26T01:31:03.537Z,102835.50
2023-05-26T01:33:51.403Z,102838.06
2023-05-26T01:36:39.256Z,102836.28
2023-05-26T01:39:27.532Z,102838.81
2023-05-26T01:42:34.266Z,102834.41
2023-05-26T01:45:26.156Z,102834.34
2023-05-26T01:48:18.179Z,102833.41
2023-05-26T01:51:07.643Z,102837.69
2023-05-26T01:54:01.944Z,102839.44
2023-05-26T01:56:54.789Z,102842.88
2023-05-26T01:59:42.734Z,102840.25
2023-05-26T02:02:30.959Z,102847.16
2023-05-26T02:05:19.111Z,102840.13
2023-05-26T02:08:12.089Z,102845.31
2023-05-26T02:10:59.979Z,102843.56
2023-05-26T02:13:47.877Z,102850.47
2023-05-26T02:16:36.135Z,102846.09
2023-05-26T02:19:24.413Z,102849.56
2023-05-26T02:22:14.084Z,102849.53
2023-05-26T02:25:02.590Z,102851.25
2023-05-26T02:27:51.462Z,102850.38
2023-05-26T02:30:39.244Z,102852.06
2023-05-26T02:33:27.870Z,102853.75
2023-05-26T02:36:15.719Z,102844.09
2023-05-26T02:39:03.657Z,102849.28
2023-05-26T02:41:53.542Z,102850.09
2023-05-26T02:44:41.331Z,102845.69
2023-05-26T02:47:29.172Z,102847.44
2023-05-26T02:50:18.783Z,102848.28
2023-05-26T02:53:06.825Z,102844.69
2023-05-26T02:55:54.820Z,102844.66
2023-05-26T02:58:42.534Z,102851.56
2023-05-26T03:01:30.731Z,102851.53
2023-05-26T03:04:18.643Z,102848.00
2023-05-26T03:07:09.100Z,102858.50
2023-05-26T03:09:58.304Z,102854.09
2023-05-26T03:12:46.185Z,102850.56
2023-05-26T03:15:36.598Z,102844.47
2023-05-26T03:18:28.347Z,102851.41
2023-05-26T03:21:47.545Z,102850.50
2023-05-26T03:24:26.265Z,102852.25
2023-05-26T03:27:14.141Z,102856.59
2023-05-26T03:30:02.004Z,102861.81
2023-05-26T03:32:51.439Z,102858.28
2023-05-26T03:35:39.774Z,102860.91
2023-05-26T03:38:28.248Z,102864.41
2023-05-26T03:41:18.861Z,102867.88
2023-05-26T03:44:19.971Z,102861.81
2023-05-26T03:47:10.479Z,102875.78
2023-05-26T03:49:59.451Z,102870.59
2023-05-26T03:52:49.316Z,102868.88
2023-05-26T03:55:37.691Z,102877.59
2023-05-26T03:58:26.358Z,102879.34
2023-05-26T04:01:14.188Z,102879.34
2023-05-26T04:04:01.978Z,102880.25
2023-05-26T04:06:52.125Z,102868.91
2023-05-26T04:09:40.094Z,102875.13
2023-05-26T04:12:28.154Z,102882.13
2023-05-26T04:15:16.015Z,102876.94
2023-05-26T04:18:03.958Z,102882.25
2023-05-26T04:20:57.406Z,102884.84
2023-05-26T04:23:48.657Z,102888.41
2023-05-26T04:26:36.711Z,102888.44
2023-05-26T04:29:36.657Z,102887.59
2023-05-26T04:32:43.788Z,102892.03
2023-05-26T04:35:41.704Z,102882.50
2023-05-26T04:38:29.460Z,102887.78
2023-05-26T04:41:17.882Z,102891.34
2023-05-26T04:44:06.826Z,102889.84
2023-05-26T04:46:54.648Z,102898.84
2023-05-26T04:49:43.557Z,102893.81
2023-05-26T04:52:31.663Z,102900.13
2023-05-26T04:55:19.780Z,102903.81
2023-05-26T04:58:08.231Z,102901.31
2023-05-26T05:00:57.567Z,102897.88
2023-05-26T05:04:08.655Z,102898.78
2023-05-26T05:07:00.556Z,102898.78
2023-05-26T05:09:48.533Z,102909.31
2023-05-26T05:12:36.885Z,102914.59
2023-05-26T05:15:28.627Z,102910.19
2023-05-26T05:18:16.908Z,102921.56
2023-05-26T05:21:05.592Z,102914.59
2023-05-26T05:23:54.292Z,102919.91
2023-05-26T05:26:42.546Z,102919.97
2023-05-26T05:29:31.056Z,102929.66
2023-05-26T05:32:21.821Z,102922.72
2023-05-26T05:35:11.732Z,102921.91
2023-05-26T05:37:59.763Z,102916.75
2023-05-26T05:40:49.300Z,102923.84
2023-05-26T05:43:37.624Z,102923.03
2023-05-26T05:46:27.320Z,102927.53
2023-05-26T05:49:19.031Z,102923.16
2023-05-26T05:52:09.807Z,102928.53
2023-05-26T05:54:58.433Z,102936.47
2023-05-26T05:57:46.289Z,102941.81
2023-05-26T06:00:34.344Z,102947.09
2023-05-26T06:03:22.358Z,102948.09
2023-05-26T06:06:10.647Z,102948.19
2023-05-26T06:09:01.154Z,102947.44
2023-05-26T06:11:53.620Z,102950.13
2023-05-26T06:14:42.105Z,102959.84
2023-05-26T06:17:37.883Z,102957.22
2023-05-26T06:20:26.552Z,102960.72
2023-05-26T06:23:15.073Z,102959.84
2023-05-26T06:26:05.708Z,102972.16
2023-05-26T06:28:54.082Z,102971.31
2023-05-26T06:31:42.058Z,102971.38
2023-05-26T06:34:34.400Z,102974.03
2023-05-26T06:37:22.364Z,102963.50
2023-05-26T06:40:15.254Z,102962.63
2023-05-26T06:43:06.852Z,102960.88
2023-05-26T06:45:55.078Z,102955.63
2023-05-26T06:48:43.961Z,102960.06
2023-05-26T06:51:47.624Z,102967.97
2023-05-26T06:54:35.590Z,102963.53
2023-05-26T06:57:23.612Z,102958.25
2023-05-26T07:00:12.657Z,102949.47
2023-05-26T07:03:00.878Z,102963.53
2023-05-26T07:05:57.435Z,102960.84
2023-05-26T07:08:46.110Z,102959.88
2023-05-26T07:11:42.218Z,102960.72
2023-05-26T07:14:50.066Z,102958.97
2023-05-26T07:17:38.367Z,102965.09
2023-05-26T07:20:26.742Z,102965.91
2023-05-26T07:23:16.288Z,102964.94
2023-05-26T07:26:04.242Z,102969.19
2023-05-26T07:28:53.550Z,102969.91
2023-05-26T07:31:41.625Z,102975.16
2023-05-26T07:34:29.645Z,102980.47
2023-05-26T07:37:17.531Z,102981.38
2023-05-26T07:40:06.785Z,102973.28
2023-05-26T07:42:54.768Z,102977.63
2023-05-26T07:46:03.630Z,102967.94
2023-05-26T07:48:51.708Z,102974.31
2023-05-26T07:51:45.369Z,102973.47
2023-05-26T07:54:33.652Z,102981.38
2023-05-26T07:57:29.877Z,102970.63
2023-05-26T08:00:19.095Z,102959.91
2023-05-26T08:03:10.464Z,102961.53
2023-05-26T08:08:52.798Z,102967.53
2023-05-26T08:11:40.875Z,102962.19
2023-05-26T08:14:30.204Z,102969.25
2023-05-26T08:17:18.566Z,102964.78
2023-05-26T08:20:07.741Z,102960.25
2023-05-26T08:22:59.763Z,102975.16
2023-05-26T08:25:51.815Z,102966.19
2023-05-26T08:28:42.584Z,102968.75
2023-05-26T08:31:34.006Z,102973.03
2023-05-26T08:34:27.839Z,102968.53
2023-05-26T08:37:17.208Z,102971.06
2023-05-26T08:40:10.769Z,102972.69
2023-05-26T08:43:08.921Z,102972.63
2023-05-26T08:46:02.815Z,102963.72
2023-05-26T08:49:05.744Z,102962.78
2023-05-26T08:52:14.128Z,102967.41
2023-05-26T08:55:02.942Z,102965.69
2023-05-26T08:57:51.208Z,102963.75
2023-05-26T09:00:41.529Z,102962.78
2023-05-26T09:03:38.635Z,102959.91
2023-05-26T09:06:26.448Z,102959.72
2023-05-26T09:09:15.550Z,102961.41
2023-05-26T09:12:13.785Z,102964.88
2023-05-26T09:15:01.657Z,102955.97
2023-05-26T09:17:49.948Z,102961.16
2023-05-26T09:20:47.352Z,102950.34
2023-05-26T09:23:35.727Z,102955.56
2023-05-26T09:26:36.127Z,102954.59
2023-05-26T09:29:23.989Z,102953.56
2023-05-26T09:32:17.217Z,102964.16
2023-05-26T09:35:05.656Z,102951.69
2023-05-26T09:37:55.764Z,102956.09
2023-05-26T09:40:46.539Z,102958.59
2023-05-26T09:43:35.252Z,102962.81
2023-05-26T09:46:25.906Z,102953.88
2023-05-26T09:49:18.172Z,102953.81
2023-05-26T09:54:57.986Z,102974.91
2023-05-26T09:57:49.138Z,102962.34
2023-05-26T10:00:41.292Z,102965.84
2023-05-26T10:03:29.947Z,102955.25
2023-05-26T10:06:20.595Z,102953.28
2023-05-26T10:09:11.045Z,102952.09
2023-05-26T10:12:00.070Z,102952.03
2023-05-26T10:14:48.066Z,102947.31
2023-05-26T10:17:36.491Z,102948.00
2023-05-26T10:20:24.645Z,102953.22
2023-05-26T10:23:23.173Z,102951.28
2023-05-26T10:26:27.641Z,102951.22
2023-05-26T10:29:23.397Z,102937.81
2023-05-26T10:32:46.641Z,102935.09
2023-05-26T10:35:34.650Z,102930.47
2023-05-26T10:38:37.385Z,102923.94
2023-05-26T10:41:33.207Z,102926.28
2023-05-26T10:45:16.771Z,102932.31
2023-05-26T10:48:12.150Z,102934.97
2023-05-26T10:51:00.284Z,102929.78
2023-05-26T10:53:48.610Z,102919.00
2023-05-26T10:56:42.883Z,102924.94
2023-05-26T10:59:34.403Z,102920.94
2023-05-26T11:02:22.848Z,102926.00
2023-05-26T11:05:31.702Z,102920.38
2023-05-26T11:08:23.687Z,102933.78
2023-05-26T11:11:15.339Z,102915.47
2023-05-26T11:14:13.542Z,102918.16
2023-05-26T11:17:06.614Z,102922.19
2023-05-26T11:19:59.656Z,102913.94
2023-05-26T11:22:50.208Z,102915.44
2023-05-26T11:25:48.851Z,102913.63
2023-05-26T11:28:41.996Z,102913.25
2023-05-26T11:31:30.463Z,102918.97
2023-05-26T11:34:18.536Z,102916.28
2023-05-26T11:37:09.318Z,102917.09
2023-05-26T11:39:57.625Z,102917.78
2023-05-26T11:42:54.671Z,102905.91
2023-05-26T11:45:42.413Z,102918.66
2023-05-26T11:48:40.317Z,102915.72
2023-05-26T11:51:28.076Z,102914.78
2023-05-26T11:54:17.184Z,102895.91
2023-05-26T11:57:22.863Z,102897.47
2023-05-26T12:00:18.953Z,102899.09
2023-05-26T12:03:06.911Z,102903.50
2023-05-26T12:06:14.951Z,102906.03
2023-05-26T12:09:13.352Z,102895.94
2023-05-26T12:12:03.258Z,102906.56
2023-05-26T12:14:51.062Z,102899.34
2023-05-26T12:17:38.962Z,102893.56
2023-05-26T12:20:43.357Z,102888.63
2023-05-26T12:23:32.710Z,102900.94
2023-05-26T12:26:31.190Z,102894.34
2023-05-26T12:29:20.243Z,102890.50
2023-05-26T12:32:13.142Z,102889.81
2023-05-26T12:35:01.162Z,102889.09
2023-05-26T12:37:49.006Z,102888.97
2023-05-26T12:40:36.849Z,102885.97
2023-05-26T12:43:24.682Z,102886.69
2023-05-26T12:46:12.601Z,102884.84
2023-05-26T12:49:00.492Z,102886.28
2023-05-26T12:51:48.689Z,102893.31
2023-05-26T12:54:36.488Z,102898.44
2023-05-26T12:57:24.266Z,102884.78
2023-05-26T13:00:12.894Z,102881.63
2023-05-26T13:03:01.588Z,102884.06
2023-05-26T13:05:52.666Z,102879.59
2023-05-26T13:08:41.563Z,102876.00
2023-05-26T13:11:29.422Z,102880.53
2023-05-26T13:14:18.421Z,102857.13
2023-05-26T13:17:06.587Z,102864.97
2023-05-26T13:19:56.362Z,102857.84
2023-05-26T13:22:46.867Z,102857.09
2023-05-26T13:25:34.716Z,102861.38
2023-05-26T13:28:24.020Z,102850.06
2023-05-26T13:31:11.840Z,102856.84
2023-05-26T13:33:59.798Z,102853.84
2023-05-26T13:36:47.772Z,102851.06
2023-05-26T13:39:36.465Z,102837.44
2023-05-26T13:42:24.233Z,102844.34
2023-05-26T13:45:13.953Z,102838.09
2023-05-26T13:48:01.935Z,102837.91
2023-05-26T13:50:50.073Z,102842.34
2023-05-26T13:53:38.799Z,102841.22
2023-05-26T13:56:28.211Z,102834.91
2023-05-26T13:59:16.104Z,102836.94
2023-05-26T14:02:04.160Z,102831.25
2023-05-26T14:04:52.597Z,102828.34
2023-05-26T14:07:40.278Z,102829.66
2023-05-26T14:10:31.213Z,102826.63
2023-05-26T14:13:18.998Z,102817.53
2023-05-26T14:16:06.724Z,102821.22
2023-05-26T14:19:05.386Z,102818.06
2023-05-26T14:22:10.918Z,102811.78
2023-05-26T14:25:03.093Z,102812.88
2023-05-26T14:27:52.032Z,102821.38
2023-05-26T14:30:39.795Z,102818.44
2023-05-26T14:33:27.657Z,102817.25
2023-05-26T14:36:15.823Z,102820.84
2023-05-26T14:39:07.446Z,102816.47
2023-05-26T14:41:55.377Z,102805.34
2023-05-26T14:44:43.132Z,102807.41
2023-05-26T14:47:31.218Z,102815.34
2023-05-26T14:50:21.639Z,102810.28
2023-05-26T14:53:10.421Z,102810.28
2023-05-26T14:56:01.388Z,102805.66
2023-05-26T14:58:49.263Z,102815.00
2023-05-26T15:01:39.652Z,102812.13
2023-05-26T15:04:27.571Z,102807.94
2023-05-26T15:07:15.447Z,102810.16
2023-05-26T15:10:05.100Z,102803.75
2023-05-26T15:12:53.514Z,102802.88
2023-05-26T15:15:41.342Z,102792.47
2023-05-26T15:18:29.256Z,102793.56
2023-05-26T15:21:17.318Z,102801.88
2023-05-26T15:24:06.951Z,102797.53
2023-05-26T15:26:55.400Z,102797.31
2023-05-26T15:29:45.027Z,102788.44
2023-05-26T15:32:33.027Z,102793.72
2023-05-26T15:35:21.986Z,102788.72
2023-05-26T15:38:09.872Z,102792.81
2023-05-26T15:40:58.304Z,102790.13
2023-05-26T15:43:46.367Z,102782.34
2023-05-26T15:46:34.253Z,102781.84
2023-05-26T15:49:23.143Z,102790.63
2023-05-26T15:52:11.019Z,102788.09
2023-05-26T15:54:59.393Z,102791.53
2023-05-26T15:57:47.297Z,102777.19
2023-05-26T16:00:35.513Z,102791.53
2023-05-26T16:03:24.115Z,102783.75
2023-05-26T16:06:12.996Z,102785.56
2023-05-26T16:09:00.886Z,102785.53
2023-05-26T16:11:48.775Z,102784.50
2023-05-26T16:14:37.197Z,102781.81
2023-05-26T16:17:25.076Z,102798.97
2023-05-26T16:20:22.765Z,102786.09
2023-05-26T16:23:10.743Z,102789.13
2023-05-26T16:26:01.231Z,102796.56
2023-05-26T16:28:49.111Z,102784.94
2023-05-26T16:31:37.074Z,102776.41
2023-05-26T16:34:26.082Z,102775.16
2023-05-26T16:37:13.911Z,102782.63
2023-05-26T16:40:02.429Z,102777.34
2023-05-26T16:42:50.305Z,102771.69
2023-05-26T16:45:38.091Z,102767.34
2023-05-26T16:48:25.893Z,102776.50
2023-05-26T16:51:13.878Z,102769.50
2023-05-26T16:54:01.737Z,102770.81
2023-05-26T16:56:49.503Z,102766.38
2023-05-26T16:59:37.471Z,102780.94
2023-05-26T17:02:25.696Z,102773.34
2023-05-26T17:05:13.858Z,102773.13
2023-05-26T17:08:02.067Z,102771.97
2023-05-26T17:10:50.098Z,102779.56
2023-05-26T17:13:37.908Z,102774.78
2023-05-26T17:16:25.833Z,102775.91
2023-05-26T17:19:13.776Z,102772.63
2023-05-26T17:22:01.769Z,102782.81
2023-05-26T17:24:49.866Z,102786.78
2023-05-26T17:27:37.634Z,102791.31
2023-05-26T17:30:25.630Z,102787.66
2023-05-26T17:33:13.541Z,102788.41
2023-05-26T17:36:01.270Z,102790.66
2023-05-26T17:38:54.747Z,102793.38
2023-05-26T17:41:42.787Z,102787.59
2023-05-26T17:44:30.665Z,102781.59
2023-05-26T17:47:18.436Z,102779.34
2023-05-26T17:50:06.906Z,102787.22
2023-05-26T17:52:54.769Z,102793.03
2023-05-26T17:55:43.770Z,102790.72
2023-05-26T17:58:32.795Z,102806.13
2023-05-26T18:01:23.034Z,102801.00
2023-05-26T18:04:11.023Z,102792.66
2023-05-26T18:06:59.130Z,102804.56
2023-05-26T18:09:46.986Z,102802.38
2023-05-26T18:12:34.710Z,102803.59
2023-05-26T18:15:22.774Z,102803.81
2023-05-26T18:18:10.953Z,102804.19
2023-05-26T18:20:59.016Z,102801.75
2023-05-26T18:23:47.064Z,102805.63
2023-05-26T18:26:34.997Z,102804.97
2023-05-26T18:29:23.423Z,102809.78
2023-05-26T18:32:12.017Z,102813.69
2023-05-26T18:35:00.107Z,102808.00
2023-05-26T18:37:50.870Z,102805.78
2023-05-26T18:40:38.695Z,102801.81
2023-05-26T18:43:26.450Z,102811.13
2023-05-26T18:46:14.296Z,102811.47
2023-05-26T18:49:02.344Z,102805.59
2023-05-26T18:51:50.118Z,102812.16
2023-05-26T18:54:37.900Z,102808.91
2023-05-26T18:57:25.940Z,102817.06
2023-05-26T19:00:15.679Z,102805.81
2023-05-26T19:03:04.069Z,102810.53
2023-05-26T19:05:51.931Z,102821.38
2023-05-26T19:08:39.671Z,102817.28
2023-05-26T19:11:28.802Z,102818.50
2023-05-26T19:14:16.666Z,102811.75
2023-05-26T19:17:04.754Z,102818.19
2023-05-26T19:19:54.164Z,102823.66
2023-05-26T19:22:43.360Z,102825.66
2023-05-26T19:25:31.170Z,102832.06
2023-05-26T19:28:21.006Z,102830.47
2023-05-26T19:31:08.746Z,102829.81
2023-05-26T19:33:57.167Z,102830.88
2023-05-26T19:36:44.999Z,102844.28
2023-05-26T19:39:32.769Z,102848.81
2023-05-26T19:42:20.995Z,102844.56
2023-05-26T19:45:09.274Z,102848.22
2023-05-26T19:47:57.121Z,102849.25
2023-05-26T19:50:44.949Z,102852.88
2023-05-26T19:53:33.479Z,102849.44
2023-05-26T19:56:22.762Z,102851.31
2023-05-26T19:59:13.413Z,102857.59
2023-05-26T20:02:01.757Z,102851.50
2023-05-26T20:04:49.583Z,102856.91
2023-05-26T20:07:38.017Z,102849.97
2023-05-26T20:10:25.746Z,102857.97
2023-05-26T20:13:13.534Z,102863.31
2023-05-26T20:16:01.382Z,102858.94
2023-05-26T20:18:49.264Z,102859.91
2023-05-26T20:21:37.500Z,102856.41
2023-05-26T20:24:25.689Z,102862.59
2023-05-26T20:27:13.497Z,102860.00
2023-05-26T20:30:01.280Z,102855.66
2023-05-26T20:32:49.111Z,102856.59
2023-05-26T20:35:36.889Z,102855.75
2023-05-26T20:38:24.676Z,102857.56
2023-05-26T20:41:12.488Z,102851.47
2023-05-26T20:44:00.431Z,102852.38
2023-05-26T20:46:49.016Z,102860.31
2023-05-26T20:49:36.785Z,102852.44
2023-05-26T20:52:24.600Z,102857.75
2023-05-26T20:55:12.478Z,102856.03
2023-05-26T20:58:00.222Z,102860.47
2023-05-26T21:00:48.799Z,102872.81
2023-05-26T21:03:36.724Z,102857.88
2023-05-26T21:06:24.636Z,102864.94
2023-05-26T21:09:12.811Z,102857.03
2023-05-26T21:12:00.593Z,102854.41
2023-05-26T21:14:48.356Z,102861.47
2023-05-26T21:17:36.778Z,102860.63
2023-05-26T21:20:24.597Z,102858.88
2023-05-26T21:23:14.902Z,102853.63
2023-05-26T21:26:02.779Z,102855.38
2023-05-26T21:28:50.682Z,102857.16
2023-05-26T21:31:38.517Z,102853.63
2023-05-26T21:34:26.338Z,102851.91
2023-05-26T21:37:14.098Z,102852.78
2023-05-26T21:40:01.909Z,102841.38
2023-05-26T21:42:49.687Z,102838.72
2023-05-26T21:45:37.459Z,102843.16
2023-05-26T21:48:25.295Z,102847.56
2023-05-26T21:51:13.067Z,102845.81
2023-05-26T21:54:00.911Z,102849.25
2023-05-26T21:56:48.606Z,102842.25
2023-05-26T21:59:36.441Z,102848.41
2023-05-26T22:02:24.311Z,102850.19
2023-05-26T22:05:12.725Z,102852.81
2023-05-26T22:08:00.689Z,102854.56
2023-05-26T22:10:48.529Z,102852.81
2023-05-26T22:13:36.743Z,102858.09
2023-05-26T22:16:24.662Z,102858.06
2023-05-26T22:19:13.174Z,102857.22
2023-05-26T22:22:01.062Z,102861.59
2023-05-26T22:24:48.895Z,102852.78
2023-05-26T22:27:36.715Z,102855.44
2023-05-26T22:30:25.944Z,102854.53
2023-05-26T22:33:13.913Z,102857.19
2023-05-26T22:36:01.685Z,102853.69
2023-05-26T22:38:49.565Z,102861.56
2023-05-26T22:41:37.348Z,102856.28
2023-05-26T22:44:25.327Z,102852.78
2023-05-26T22:47:13.216Z,102856.25
2023-05-26T22:50:01.836Z,102850.13
2023-05-26T22:52:49.595Z,102858.00
2023-05-26T22:55:45.511Z,102850.09
2023-05-26T22:58:39.735Z,102848.31
2023-05-26T23:01:28.425Z,102850.06
2023-05-26T23:04:16.371Z,102843.03
2023-05-26T23:07:04.446Z,102839.50
2023-05-26T23:09:52.264Z,102836.84
2023-05-26T23:12:40.807Z,102835.13
2023-05-26T23:15:31.534Z,102844.75
2023-05-26T23:18:19.451Z,102850.88
2023-05-26T23:21:07.236Z,102845.63
2023-05-26T23:23:55.099Z,102849.09
2023-05-26T23:26:42.842Z,102843.81
2023-05-26T23:29:30.652Z,102848.19
2023-05-26T23:32:18.438Z,102840.28
2023-05-26T23:35:07.086Z,102835.88
2023-05-26T23:37:54.810Z,102838.50
2023-05-26T23:40:42.791Z,102838.47
2023-05-26T23:43:31.189Z,102835.78
2023-05-26T23:46:19.014Z,102835.75
2023-05-26T23:49:07.190Z,102835.72
2023-05-26T23:51:55.026Z,102832.22
2023-05-26T23:54:42.883Z,102838.34
2023-05-26T23:57:30.664Z,102833.03
